Time;durP1;ratioP1;P1;durP2;ratioP2;P2;SDS_P1;SDS_P2;PMS_P1;PMS_P2;Temp;Humidity;BMP_temperature;BMP_pressure;BME280_temperature;BME280_humidity;BME280_pressure;Samples;Min_cycle;Max_cycle;Signal;HPM_P1;HPM_P2
2023/03/30 00:02:11;;;;;;;8.90;2.60;;;;;;;12.52;100.00;100566.84;5032395;28;20041;-80
2023/03/30 00:04:41;;;;;;;12.65;2.65;;;;;;;12.56;100.00;100551.34;5031145;28;20517;-83
2023/03/30 00:07:07;;;;;;;11.45;2.80;;;;;;;12.63;100.00;100548.84;5047678;28;20048;-79
2023/03/30 00:09:33;;;;;;;7.40;2.42;;;;;;;12.63;100.00;100548.84;5014383;28;20029;-79
2023/03/30 00:12:02;;;;;;;6.07;2.42;;;;;;;12.62;100.00;100540.00;5032087;28;20041;-80
2023/03/30 00:14:28;;;;;;;8.93;2.40;;;;;;;12.54;100.00;100542.66;5032516;28;20061;-79
2023/03/30 00:16:55;;;;;;;8.00;2.33;;;;;;;12.47;100.00;100552.28;5032032;28;20056;-80
2023/03/30 00:19:20;;;;;;;9.10;3.05;;;;;;;12.43;100.00;100556.25;4998085;28;20410;-79
2023/03/30 00:21:46;;;;;;;15.65;3.05;;;;;;;12.38;100.00;100555.91;5032511;28;20204;-77
2023/03/30 00:24:12;;;;;;;10.82;2.80;;;;;;;12.37;100.00;100572.91;5014282;28;20033;-78
2023/03/30 00:26:37;;;;;;;10.35;2.50;;;;;;;12.34;100.00;100572.19;5031803;28;20036;-79
2023/03/30 00:29:03;;;;;;;11.27;2.50;;;;;;;12.31;100.00;100563.69;5031768;28;20037;-80
2023/03/30 00:31:28;;;;;;;7.30;2.30;;;;;;;12.26;100.00;100555.34;5031596;28;20025;-78
2023/03/30 00:33:53;;;;;;;8.63;2.30;;;;;;;12.29;100.00;100561.19;5032163;28;20029;-78
2023/03/30 00:36:19;;;;;;;8.35;2.85;;;;;;;12.28;100.00;100546.16;5031742;28;20045;-78
2023/03/30 00:38:47;;;;;;;6.50;2.40;;;;;;;12.30;100.00;100556.69;5031387;28;20041;-80
2023/03/30 00:41:13;;;;;;;8.15;2.53;;;;;;;12.34;100.00;100550.03;5031859;28;20068;-80
2023/03/30 00:44:32;;;;;;;10.82;2.25;;;;;;;12.32;100.00;100552.03;5031742;28;20040;-79
2023/03/30 00:46:58;;;;;;;7.32;2.60;;;;;;;12.28;100.00;100546.16;4951408;29;20082;-78
2023/03/30 00:49:24;;;;;;;8.90;2.55;;;;;;;12.16;100.00;100544.75;5025353;28;20069;-78
2023/03/30 00:51:50;;;;;;;7.20;2.50;;;;;;;12.03;100.00;100545.16;5032096;28;20084;-79
2023/03/30 00:54:19;;;;;;;13.40;2.88;;;;;;;11.94;100.00;100551.44;5046794;28;20144;-78
2023/03/30 00:56:45;;;;;;;5.15;2.35;;;;;;;11.97;100.00;100546.63;5031903;28;20025;-81
2023/03/30 00:59:11;;;;;;;11.98;2.22;;;;;;;11.94;100.00;100538.09;5031678;28;20524;-80
2023/03/30 01:01:39;;;;;;;8.60;2.35;;;;;;;11.92;100.00;100543.56;5031307;28;20093;-78
2023/03/30 01:04:07;;;;;;;14.48;2.58;;;;;;;11.91;100.00;100546.38;5013456;28;20069;-79
2023/03/30 01:06:38;;;;;;;15.10;2.75;;;;;;;11.89;100.00;100535.88;5031950;28;20112;-78
2023/03/30 01:09:04;;;;;;;;;;;;;;;11.87;100.00;100532.53;5032524;28;20033;-79
2023/03/30 01:11:31;;;;;;;14.45;2.60;;;;;;;11.86;100.00;100530.03;5014306;28;20028;-79
2023/03/30 01:14:04;;;;;;;14.50;2.40;;;;;;;11.85;100.00;100529.16;5030719;28;20045;-80
2023/03/30 01:17:00;;;;;;;6.28;2.40;;;;;;;11.81;100.00;100520.66;5048443;28;20347;-80
2023/03/30 01:20:08;;;;;;;9.35;2.40;;;;;;;11.73;100.00;100509.91;5035678;28;20468;-80
2023/03/30 01:22:53;;;;;;;10.18;2.58;;;;;;;11.69;100.00;100513.03;5035664;28;20030;-80
2023/03/30 01:25:49;;;;;;;7.97;2.30;;;;;;;11.68;100.00;100508.72;5035759;28;20053;-78
2023/03/30 01:28:28;;;;;;;9.55;2.58;;;;;;;11.65;100.00;100524.00;5019748;28;20474;-79
2023/03/30 01:30:54;;;;;;;11.70;2.28;;;;;;;11.65;100.00;100521.34;5019870;28;20036;-78
2023/03/30 01:33:48;;;;;;;11.20;2.92;;;;;;;11.73;100.00;100503.75;5036544;28;20026;-80
2023/03/30 01:36:27;;;;;;;8.98;2.35;;;;;;;11.71;100.00;100503.91;5036310;28;20109;-81
2023/03/30 01:38:58;;;;;;;10.60;2.38;;;;;;;11.67;100.00;100501.72;5035388;28;20042;-79
2023/03/30 01:41:32;;;;;;;19.90;2.97;;;;;;;11.60;100.00;100493.50;5035576;28;20045;-81
2023/03/30 01:44:16;;;;;;;11.75;2.50;;;;;;;11.56;100.00;100492.97;5035160;28;20037;-79
2023/03/30 01:47:08;;;;;;;14.45;4.10;;;;;;;11.48;100.00;100476.94;5050525;28;20167;-81
2023/03/30 01:49:43;;;;;;;8.98;2.63;;;;;;;11.36;100.00;100484.31;5034808;28;20091;-79
2023/03/30 01:52:20;;;;;;;10.68;2.63;;;;;;;11.31;100.00;100488.41;5016609;28;20517;-79
2023/03/30 01:55:09;;;;;;;13.70;3.10;;;;;;;11.30;100.00;100492.94;5032611;28;20164;-79
2023/03/30 01:57:50;;;;;;;11.85;2.40;;;;;;;11.33;100.00;100503.28;5049225;28;20025;-80
2023/03/30 02:00:21;;;;;;;11.25;2.60;;;;;;;11.28;100.00;100503.69;5014687;28;20065;-74
2023/03/30 02:02:53;;;;;;;10.23;2.38;;;;;;;11.25;100.00;100508.50;5032716;28;20069;-73
2023/03/30 02:05:21;;;;;;;7.43;2.03;;;;;;;11.27;100.00;100515.38;5032378;28;20045;-74
2023/03/30 02:07:59;;;;;;;9.93;2.55;;;;;;;11.38;100.00;100506.31;5014656;28;20045;-73
2023/03/30 02:10:30;;;;;;;11.20;2.50;;;;;;;11.42;100.00;100504.16;5032936;28;20030;-73
2023/03/30 02:12:58;;;;;;;10.67;2.40;;;;;;;11.50;100.00;100508.75;5032622;28;20454;-73
2023/03/30 02:15:27;;;;;;;14.40;2.28;;;;;;;11.50;100.00;100500.75;5032594;28;20028;-72
2023/03/30 02:17:52;;;;;;;11.93;2.40;;;;;;;11.56;100.00;100510.78;5032519;28;20456;-73
2023/03/30 02:20:18;;;;;;;11.93;2.50;;;;;;;11.55;100.00;100499.28;5032029;28;20033;-73
2023/03/30 02:22:44;;;;;;;8.95;2.53;;;;;;;11.57;100.00;100499.97;5047271;28;20025;-73
2023/03/30 02:25:11;;;;;;;8.88;2.58;;;;;;;11.57;100.00;100499.97;5046709;28;20021;-74
2023/03/30 02:27:37;;;;;;;12.48;2.85;;;;;;;11.56;100.00;100500.97;5031171;28;20095;-73
2023/03/30 02:30:06;;;;;;;9.13;2.92;;;;;;;11.57;100.00;100494.66;5031618;28;20025;-73
2023/03/30 02:32:39;;;;;;;7.47;1.83;;;;;;;11.54;100.00;100468.31;5032236;28;20144;-73
2023/03/30 02:35:25;;;;;;;6.70;2.13;;;;;;;11.52;100.00;100488.09;5032023;28;20037;-74
2023/03/30 02:38:29;;;;;;;8.30;1.58;;;;;;;11.50;100.00;100474.94;5031696;28;20420;-73
2023/03/30 02:41:03;;;;;;;9.38;2.67;;;;;;;11.50;100.00;100474.13;5013981;28;20045;-73
2023/03/30 02:43:47;;;;;;;18.63;3.33;;;;;;;11.50;100.00;100476.78;5031293;28;20068;-74
2023/03/30 02:46:24;;;;;;;10.10;2.03;;;;;;;11.48;100.00;100468.94;5031858;28;20199;-73
2023/03/30 02:48:55;;;;;;;8.88;1.70;;;;;;;11.49;100.00;100473.25;5031444;28;20030;-73
2023/03/30 02:51:39;;;;;;;11.05;1.92;;;;;;;11.42;100.00;100469.53;5031097;28;20109;-74
2023/03/30 02:54:11;;;;;;;11.77;3.00;;;;;;;11.32;100.00;100460.81;5046411;28;20042;-74
2023/03/30 02:56:46;;;;;;;12.07;3.28;;;;;;;11.26;100.00;100475.56;5031361;28;20180;-72
2023/03/30 02:59:27;;;;;;;10.23;2.03;;;;;;;11.24;100.00;100464.22;5031516;28;20035;-73
2023/03/30 03:02:10;;;;;;;;;;;;;;;11.29;100.00;100465.44;5014473;28;20484;-74
2023/03/30 03:04:37;;;;;;;9.48;2.00;;;;;;;11.36;100.00;100464.81;5031260;28;19916;-74
2023/03/30 03:07:02;;;;;;;6.88;1.92;;;;;;;11.42;100.00;100465.06;5031001;28;20101;-75
2023/03/30 03:09:28;;;;;;;12.20;2.50;;;;;;;11.45;100.00;100471.91;5030961;28;20460;-73
2023/03/30 03:11:54;;;;;;;13.32;2.20;;;;;;;11.46;100.00;100471.75;5030856;28;20038;-73
2023/03/30 03:14:19;;;;;;;7.07;1.92;;;;;;;11.52;100.00;100467.63;5030730;28;20091;-73
2023/03/30 03:16:45;;;;;;;7.07;1.98;;;;;;;11.55;100.00;100466.47;5013232;28;20033;-73
2023/03/30 03:19:10;;;;;;;5.93;2.38;;;;;;;11.55;100.00;100471.81;4996240;28;20029;-73
2023/03/30 03:21:36;;;;;;;8.25;2.10;;;;;;;11.60;100.00;100467.69;5030767;28;20034;-73
2023/03/30 03:24:03;;;;;;;12.20;2.13;;;;;;;11.60;100.00;100466.88;5030839;28;20033;-73
2023/03/30 03:26:28;;;;;;;10.73;2.00;;;;;;;11.63;100.00;100455.91;5030124;28;20445;-73
2023/03/30 03:28:54;;;;;;;9.55;2.05;;;;;;;11.62;100.00;100456.88;5030907;28;20129;-73
2023/03/30 03:31:20;;;;;;;8.65;2.45;;;;;;;11.62;100.00;100455.03;5030723;28;20036;-73
2023/03/30 03:33:46;;;;;;;14.68;2.40;;;;;;;11.61;100.00;100465.84;5012573;28;20393;-73
2023/03/30 03:36:12;;;;;;;7.72;2.15;;;;;;;11.60;100.00;100457.03;5030642;28;20117;-72
2023/03/30 03:38:37;;;;;;;9.70;2.15;;;;;;;11.59;100.00;100449.19;5030308;28;20446;-73
2023/03/30 03:41:03;;;;;;;9.13;2.20;;;;;;;11.56;100.00;100463.66;5030414;28;20461;-74
2023/03/30 03:43:28;;;;;;;13.30;2.08;;;;;;;11.53;100.00;100447.16;5029837;28;20350;-73
2023/03/30 03:45:54;;;;;;;14.73;2.75;;;;;;;11.50;100.00;100440.31;5012370;28;20114;-74
2023/03/30 03:48:22;;;;;;;10.43;2.03;;;;;;;11.49;100.00;100457.28;5030569;28;20463;-73
2023/03/30 03:50:56;;;;;;;10.85;2.78;;;;;;;11.47;100.00;100449.44;5045080;28;20029;-73
2023/03/30 03:53:23;;;;;;;10.60;2.15;;;;;;;11.43;100.00;100447.22;5029877;28;20045;-74
2023/03/30 03:55:48;;;;;;;11.32;2.85;;;;;;;11.40;100.00;100445.72;5030423;28;20025;-73
2023/03/30 03:58:15;;;;;;;14.20;2.20;;;;;;;11.37;100.00;100447.84;5029845;28;20052;-73
2023/03/30 04:00:40;;;;;;;12.77;2.80;;;;;;;11.36;100.00;100449.69;5030255;28;20029;-73
2023/03/30 04:03:07;;;;;;;14.20;2.22;;;;;;;11.31;100.00;100459.13;5030065;28;20055;-73
2023/03/30 04:05:34;;;;;;;14.88;2.58;;;;;;;11.24;100.00;100441.09;5030566;28;20175;-73
2023/03/30 04:08:00;;;;;;;15.40;3.35;;;;;;;11.17;100.00;100425.88;5012578;28;20487;-72
2023/03/30 04:10:25;;;;;;;21.17;3.05;;;;;;;11.13;100.00;100436.00;5030060;28;20105;-73
2023/03/30 04:12:55;;;;;;;17.67;2.97;;;;;;;11.08;100.00;100446.28;5030341;28;20132;-73
2023/03/30 04:15:21;;;;;;;15.88;3.08;;;;;;;11.05;100.00;100459.91;5030637;28;20117;-74
2023/03/30 04:17:48;;;;;;;26.50;3.33;;;;;;;11.02;100.00;100450.38;5012506;28;20156;-72
2023/03/30 04:20:15;;;;;;;13.85;2.55;;;;;;;11.00;100.00;100456.84;5030307;28;20029;-73
2023/03/30 04:22:41;;;;;;;19.92;3.83;;;;;;;10.98;100.00;100448.16;5030554;28;20189;-73
2023/03/30 04:25:10;;;;;;;18.88;3.53;;;;;;;10.94;100.00;100450.28;5030392;28;20104;-73
2023/03/30 04:27:36;;;;;;;15.30;3.05;;;;;;;10.85;100.00;100452.03;5030397;28;20029;-72
2023/03/30 04:30:05;;;;;;;23.85;5.05;;;;;;;10.80;100.00;100450.81;5030390;28;20090;-73
2023/03/30 04:32:33;;;;;;;23.33;3.65;;;;;;;10.74;100.00;100453.06;5012338;28;20428;-73
2023/03/30 04:35:02;;;;;;;21.05;4.43;;;;;;;10.68;100.00;100448.34;5030382;28;20045;-72
2023/03/30 04:37:30;;;;;;;19.65;3.25;;;;;;;10.61;100.00;100447.25;5030219;28;20080;-73
2023/03/30 04:39:57;;;;;;;22.23;3.67;;;;;;;10.48;100.00;100433.47;5030515;28;20030;-73
2023/03/30 04:42:29;;;;;;;27.17;4.65;;;;;;;10.40;100.00;100423.59;5030377;28;20025;-73
2023/03/30 04:44:56;;;;;;;25.42;3.65;;;;;;;10.29;100.00;100424.59;5045973;28;20044;-74
2023/03/30 04:47:23;;;;;;;26.27;4.78;;;;;;;10.16;100.00;100432.91;5030335;28;20132;-72
2023/03/30 04:49:48;;;;;;;21.60;3.88;;;;;;;10.09;100.00;100430.97;5030278;28;20079;-72
2023/03/30 04:52:14;;;;;;;22.10;3.13;;;;;;;10.03;100.00;100433.25;5032721;28;20131;-73
2023/03/30 04:54:40;;;;;;;19.75;3.05;;;;;;;9.93;100.00;100435.09;5033766;28;20453;-73
2023/03/30 04:57:05;;;;;;;25.42;3.47;;;;;;;9.84;100.00;100414.72;5034274;28;20474;-73
2023/03/30 04:59:30;;;;;;;22.42;3.58;;;;;;;9.76;100.00;100427.88;5015869;28;20041;-72
2023/03/30 05:01:56;;;;;;;25.90;3.72;;;;;;;9.71;100.00;100415.00;5033512;28;20044;-73
2023/03/30 05:04:21;;;;;;;18.83;4.07;;;;;;;9.65;100.00;100404.97;5015635;28;20135;-74
2023/03/30 05:06:48;;;;;;;31.35;6.10;;;;;;;9.62;100.00;100410.56;5033966;28;20033;-73
2023/03/30 05:09:14;;;;;;;24.90;3.78;;;;;;;9.59;100.00;100429.44;5033455;28;20187;-72
2023/03/30 05:11:40;;;;;;;23.08;3.75;;;;;;;9.57;100.00;100436.69;5033707;28;20046;-72
2023/03/30 05:14:05;;;;;;;22.95;3.70;;;;;;;9.58;100.00;100425.94;5048280;28;20034;-73
2023/03/30 05:16:31;;;;;;;33.65;5.00;;;;;;;9.54;100.00;100435.19;5033046;28;20434;-73
2023/03/30 05:18:57;;;;;;;24.65;4.30;;;;;;;9.53;100.00;100438.81;5033395;28;20087;-73
2023/03/30 05:21:22;;;;;;;25.05;4.40;;;;;;;9.46;100.00;100416.47;5015646;28;20079;-72
2023/03/30 05:23:48;;;;;;;22.17;4.85;;;;;;;9.42;100.00;100434.50;5033494;28;20434;-72
2023/03/30 05:26:13;;;;;;;28.80;4.40;;;;;;;9.38;100.00;100438.41;5032974;28;20086;-72
2023/03/30 05:28:39;;;;;;;26.20;4.30;;;;;;;9.38;100.00;100449.03;5032832;28;20338;-72
2023/03/30 05:31:04;;;;;;;29.88;4.90;;;;;;;9.38;100.00;100438.41;5033148;28;20052;-72
2023/03/30 05:33:30;;;;;;;31.08;4.93;;;;;;;9.37;100.00;100430.59;5032987;28;20216;-72
2023/03/30 05:35:55;;;;;;;27.20;4.38;;;;;;;9.33;100.00;100445.94;5032838;28;20030;-71
2023/03/30 05:38:21;;;;;;;29.45;4.30;;;;;;;9.30;100.00;100459.50;5032945;28;20033;-72
2023/03/30 05:40:52;;;;;;;22.10;3.40;;;;;;;9.30;100.00;100457.72;5032749;28;20033;-71
2023/03/30 05:43:17;;;;;;;24.77;4.38;;;;;;;9.40;100.00;100464.81;5033276;28;20037;-71
2023/03/30 05:45:44;;;;;;;28.00;4.45;;;;;;;9.49;100.00;100480.78;5032638;28;20048;-72
2023/03/30 05:48:09;;;;;;;25.65;3.75;;;;;;;9.63;100.00;100463.56;5014305;28;20041;-72
2023/03/30 05:50:35;;;;;;;24.92;4.43;;;;;;;9.73;100.00;100460.84;5033049;28;20052;-71
2023/03/30 05:53:00;;;;;;;26.80;4.72;;;;;;;9.81;100.00;100465.47;5032529;28;20064;-72
2023/03/30 05:55:26;;;;;;;39.38;4.60;;;;;;;9.89;100.00;100466.41;5032173;28;20053;-71
2023/03/30 05:57:52;;;;;;;27.00;5.10;;;;;;;9.96;100.00;100479.97;5032681;28;20094;-72
2023/03/30 06:00:20;;;;;;;25.20;3.88;;;;;;;9.99;100.00;100476.22;5032872;28;20183;-72
2023/03/30 06:02:45;;;;;;;24.75;5.03;;;;;;;10.00;100.00;100469.88;5031370;28;20044;-71
2023/03/30 06:05:11;;;;;;;29.85;4.47;;;;;;;10.00;100.00;100477.88;5032398;28;20041;-72
2023/03/30 06:07:36;;;;;;;34.28;4.97;;;;;;;10.00;100.00;100477.88;5032210;28;20037;-73
2023/03/30 06:10:04;;;;;;;44.97;6.60;;;;;;;10.01;100.00;100483.03;5032568;28;20030;-72
2023/03/30 06:12:31;;;;;;;30.55;5.15;;;;;;;9.99;100.00;100477.03;5014608;28;20417;-72
2023/03/30 06:14:56;;;;;;;28.00;4.30;;;;;;;9.99;100.00;100503.63;5032410;28;20452;-71
2023/03/30 06:17:22;;;;;;;30.85;5.13;;;;;;;10.00;100.00;100499.13;5032547;28;20033;-72
2023/03/30 06:19:47;;;;;;;30.75;4.78;;;;;;;10.00;100.00;100493.81;5031862;28;20029;-72
2023/03/30 06:22:13;;;;;;;32.45;5.50;;;;;;;10.03;100.00;100498.84;5032102;28;20056;-73
2023/03/30 06:24:38;;;;;;;33.95;4.28;;;;;;;10.04;100.00;100488.06;5031775;28;20358;-72
2023/03/30 06:27:04;;;;;;;23.38;3.92;;;;;;;10.08;100.00;100496.59;5032551;28;20086;-71
2023/03/30 06:29:29;;;;;;;27.38;4.35;;;;;;;10.10;100.00;100507.91;5047761;28;20056;-73
2023/03/30 06:31:55;;;;;;;24.83;4.40;;;;;;;10.16;100.00;100520.63;5047069;28;20037;-72
2023/03/30 06:34:20;;;;;;;30.80;4.80;;;;;;;10.19;100.00;100504.38;5032089;28;20155;-72
2023/03/30 06:36:46;;;;;;;31.83;5.35;;;;;;;10.19;100.00;100509.69;5031979;28;20038;-73
2023/03/30 06:39:13;;;;;;;27.45;3.88;;;;;;;10.16;100.00;100515.31;5031821;28;20057;-72
2023/03/30 06:41:39;;;;;;;27.70;4.82;;;;;;;10.18;100.00;100521.34;5031945;28;20044;-71
2023/03/30 06:44:05;;;;;;;29.20;4.43;;;;;;;10.21;100.00;100512.22;5032138;28;20433;-72
2023/03/30 06:46:32;;;;;;;39.92;6.28;;;;;;;10.15;100.00;100515.47;5032136;28;20115;-72
2023/03/30 06:48:58;;;;;;;28.30;5.13;;;;;;;10.06;100.00;100522.47;5031303;28;20113;-72
2023/03/30 06:51:23;;;;;;;39.05;5.70;;;;;;;10.11;100.00;100524.72;5031991;28;20057;-72
2023/03/30 06:53:49;;;;;;;27.88;4.80;;;;;;;10.12;100.00;100513.94;5031178;28;20144;-72
2023/03/30 06:56:14;;;;;;;36.72;5.10;;;;;;;10.13;100.00;100520.09;5031319;28;20029;-72
2023/03/30 06:58:40;;;;;;;43.70;5.75;;;;;;;10.27;100.00;100524.97;5031392;28;20033;-73
2023/03/30 07:01:10;;;;;;;36.25;5.10;;;;;;;10.52;100.00;100528.78;5031393;28;20045;-73
2023/03/30 07:03:36;;;;;;;30.80;5.50;;;;;;;10.64;100.00;100520.63;5031330;28;20049;-73
2023/03/30 07:06:02;;;;;;;33.28;4.55;;;;;;;10.69;100.00;100527.19;5031314;28;20358;-72
2023/03/30 07:08:27;;;;;;;38.97;6.55;;;;;;;10.73;100.00;100533.91;5031330;28;20033;-72
2023/03/30 07:10:53;;;;;;;40.15;6.68;;;;;;;10.76;100.00;100530.94;5046121;28;20094;-72
2023/03/30 07:13:18;;;;;;;35.60;6.40;;;;;;;10.66;100.00;100534.63;5012933;28;20029;-72
2023/03/30 07:15:45;;;;;;;39.47;5.90;;;;;;;10.76;100.00;100556.69;5030865;28;20124;-71
2023/03/30 07:18:10;;;;;;;38.42;6.30;;;;;;;10.79;100.00;100544.94;5031005;28;20043;-72
2023/03/30 07:20:36;;;;;;;44.72;5.65;;;;;;;10.73;100.00;100533.91;5030906;28;20029;-73
2023/03/30 07:23:02;;;;;;;44.53;6.50;;;;;;;10.58;100.00;100540.69;5030984;28;20033;-72
2023/03/30 07:25:28;;;;;;;43.40;5.82;;;;;;;10.50;100.00;100556.53;5030679;28;20528;-72
2023/03/30 07:27:53;;;;;;;33.53;4.80;;;;;;;10.42;100.00;100559.94;5030831;28;20124;-71
2023/03/30 07:30:21;;;;;;;47.58;7.30;;;;;;;10.48;100.00;100555.84;5030848;28;20032;-72
2023/03/30 07:32:47;;;;;;;32.90;5.93;;;;;;;10.51;100.00;100563.53;5012905;28;20437;-73
2023/03/30 07:35:13;;;;;;;37.72;5.85;;;;;;;10.60;100.00;100549.38;5030625;28;20131;-72
2023/03/30 07:37:38;;;;;;;28.08;5.50;;;;;;;10.61;100.00;100559.00;5030496;28;20118;-73
2023/03/30 07:40:09;;;;;;;36.63;6.40;;;;;;;10.62;100.00;100566.00;5030576;28;20033;-72
2023/03/30 07:42:35;;;;;;;31.77;5.38;;;;;;;10.59;100.00;100571.63;5013244;28;20396;-73
2023/03/30 07:45:01;;;;;;;42.75;6.15;;;;;;;10.64;100.00;100561.38;5030377;28;20061;-72
2023/03/30 07:47:26;;;;;;;45.53;6.15;;;;;;;10.71;100.00;100578.44;5030792;28;20115;-73
2023/03/30 07:49:52;;;;;;;38.83;6.40;;;;;;;10.76;100.00;100575.34;5030641;28;20171;-72
2023/03/30 07:52:17;;;;;;;34.88;5.72;;;;;;;10.69;100.00;100587.53;5030469;28;20066;-72
2023/03/30 07:54:43;;;;;;;37.83;7.10;;;;;;;10.82;100.00;100595.19;5029179;28;20053;-72
2023/03/30 07:57:10;;;;;;;44.15;7.15;;;;;;;10.81;100.00;100586.41;5031171;28;20040;-72
2023/03/30 07:59:36;;;;;;;48.85;7.35;;;;;;;10.81;100.00;100589.06;5030628;28;20064;-71
2023/03/30 08:02:01;;;;;;;39.78;6.68;;;;;;;10.92;100.00;100586.19;5030421;28;20178;-71
2023/03/30 08:04:27;;;;;;;45.67;6.30;;;;;;;11.17;100.00;100585.66;5030560;28;20079;-70
2023/03/30 08:06:52;;;;;;;41.50;6.25;;;;;;;11.44;100.00;100587.44;5030382;28;20044;-71
2023/03/30 08:09:18;;;;;;;50.78;6.57;;;;;;;11.64;100.00;100588.13;5030935;28;20033;-71
2023/03/30 08:11:44;;;;;;;39.65;6.32;;;;;;;11.90;100.00;100585.53;5030826;28;20034;-72
2023/03/30 08:14:09;;;;;;;41.40;6.40;;;;;;;12.27;100.00;100589.00;5030549;28;20331;-71
2023/03/30 08:16:35;;;;;;;37.88;5.97;;;;;;;12.61;100.00;100597.06;5012941;28;20077;-73
2023/03/30 08:19:00;;;;;;;34.65;6.38;;;;;;;12.88;100.00;100588.03;5030535;28;20049;-72
2023/03/30 08:21:25;;;;;;;46.03;7.30;;;;;;;13.18;100.00;100599.16;5012773;28;20128;-72
2023/03/30 08:23:57;;;;;;;33.28;5.55;;;;;;;13.08;100.00;100595.78;5030877;28;20460;-72
2023/03/30 08:26:23;;;;;;;36.20;6.95;;;;;;;13.14;100.00;100588.97;5014630;28;20093;-72
2023/03/30 08:28:49;;;;;;;42.92;6.20;;;;;;;13.05;100.00;100599.59;5034366;28;20075;-72
2023/03/30 08:31:16;;;;;;;42.45;6.32;;;;;;;13.18;100.00;100600.97;5034591;28;20481;-71
2023/03/30 08:33:43;;;;;;;26.65;5.65;;;;;;;12.98;100.00;100605.75;5034240;28;20076;-70
2023/03/30 08:36:09;;;;;;;46.65;7.72;;;;;;;12.85;100.00;100611.53;5034504;28;20045;-72
2023/03/30 08:38:34;;;;;;;37.15;7.90;;;;;;;12.87;100.00;100614.91;5016049;28;20460;-71
2023/03/30 08:41:00;;;;;;;49.20;7.05;;;;;;;13.05;100.00;100604.94;5034163;28;20036;-72
2023/03/30 08:43:50;;;;;;;46.42;7.47;;;;;;;13.04;100.00;100610.44;5034051;28;20414;-71
2023/03/30 08:46:18;;;;;;;38.17;6.82;;;;;;;13.05;100.00;100617.47;5049538;28;20430;-72
2023/03/30 08:48:45;;;;;;;37.33;5.85;;;;;;;13.39;100.00;100619.28;5033144;28;20053;-73
2023/03/30 08:51:38;;;;;;;45.80;6.55;;;;;;;13.99;100.00;100628.06;5033785;28;20116;-72
2023/03/30 08:54:05;;;;;;;32.20;5.05;;;;;;;14.70;100.00;100613.13;5030309;28;20053;-71
2023/03/30 08:56:34;;;;;;;36.13;6.88;;;;;;;14.93;100.00;100623.13;5034034;28;20048;-73
2023/03/30 08:59:11;;;;;;;43.88;8.18;;;;;;;15.67;100.00;100636.13;5033779;28;20033;-72
2023/03/30 09:01:53;;;;;;;37.20;5.57;;;;;;;16.31;100.00;100627.78;5049765;28;20091;-74
2023/03/30 09:04:25;;;;;;;39.20;6.70;;;;;;;16.79;100.00;100630.16;5034211;28;20033;-73
2023/03/30 09:07:05;;;;;;;36.33;5.97;;;;;;;17.70;94.86;100634.41;5034527;28;20029;-73
2023/03/30 09:09:39;;;;;;;31.80;6.32;;;;;;;18.44;80.08;100638.63;5034239;28;20116;-73
2023/03/30 09:12:18;;;;;;;34.90;5.95;;;;;;;18.76;73.20;100637.16;5034263;28;20033;-73
2023/03/30 09:14:50;;;;;;;37.80;6.00;;;;;;;18.39;70.94;100643.75;5034155;28;20029;-73
2023/03/30 09:17:19;;;;;;;40.05;6.70;;;;;;;17.67;78.58;100651.75;5034241;28;20048;-73
2023/03/30 09:19:51;;;;;;;36.22;5.82;;;;;;;16.94;89.95;100649.00;5033514;28;20079;-72
2023/03/30 09:22:19;;;;;;;36.10;5.75;;;;;;;16.25;99.87;100651.84;5049041;28;20128;-73
2023/03/30 09:24:45;;;;;;;44.50;6.75;;;;;;;16.13;100.00;100663.00;5016321;28;20029;-73
2023/03/30 09:27:28;;;;;;;36.38;5.72;;;;;;;16.96;98.32;100651.50;5048964;28;20044;-73
2023/03/30 09:30:01;;;;;;;38.42;6.85;;;;;;;17.63;89.97;100651.31;5048464;28;20064;-73
2023/03/30 09:32:31;;;;;;;33.78;6.10;;;;;;;18.66;78.79;100652.84;5016015;28;20412;-74
2023/03/30 09:35:15;;;;;;;42.45;6.85;;;;;;;19.00;71.54;100654.78;5033246;28;20036;-73
2023/03/30 09:37:41;;;;;;;34.20;5.88;;;;;;;18.17;73.69;100659.97;5015765;28;20030;-72
2023/03/30 09:40:35;;;;;;;32.95;6.40;;;;;;;17.79;79.57;100660.16;5048447;28;20030;-73
2023/03/30 09:43:23;;;;;;;31.52;6.82;;;;;;;18.24;77.59;100660.84;5048581;28;20041;-73
2023/03/30 09:45:49;;;;;;;29.35;5.88;;;;;;;18.81;69.90;100652.75;5033188;28;20029;-72
2023/03/30 09:48:15;;;;;;;28.67;6.05;;;;;;;19.42;66.86;100662.81;5032808;28;20434;-73
2023/03/30 09:50:45;;;;;;;33.75;5.10;;;;;;;19.10;66.10;100662.50;5015474;28;20064;-74
2023/03/30 09:53:25;;;;;;;42.63;6.32;;;;;;;19.74;61.23;100660.47;5033081;28;20041;-73
2023/03/30 09:55:58;;;;;;;31.98;5.70;;;;;;;18.89;66.15;100679.59;5033216;28;20073;-75
2023/03/30 09:58:32;;;;;;;38.78;6.03;;;;;;;18.13;69.94;100685.59;5032735;28;20037;-73
2023/03/30 10:01:13;;;;;;;31.92;5.65;;;;;;;17.45;77.90;100670.56;5033056;28;20048;-73
2023/03/30 10:03:40;;;;;;;31.48;6.07;;;;;;;16.42;86.58;100688.28;5033231;28;20076;-73
2023/03/30 10:06:07;;;;;;;31.27;6.28;;;;;;;15.34;100.00;100688.09;5032625;28;20033;-73
2023/03/30 10:08:48;;;;;;;38.00;6.65;;;;;;;14.96;100.00;100689.75;5032152;28;20033;-75
2023/03/30 10:11:19;;;;;;;39.35;8.57;;;;;;;15.19;100.00;100697.03;5032511;28;20037;-74
2023/03/30 10:13:45;;;;;;;40.25;6.70;;;;;;;15.79;100.00;100692.94;5032329;28;20037;-73
2023/03/30 10:16:28;;;;;;;49.00;7.15;;;;;;;16.90;100.00;100694.22;5032532;28;20033;-73
2023/03/30 10:18:59;;;;;;;38.45;5.93;;;;;;;17.54;87.60;100714.31;5031492;28;20061;-74
2023/03/30 10:21:29;;;;;;;31.05;5.80;;;;;;;17.53;82.11;100685.75;5032691;28;20128;-73
2023/03/30 10:24:01;;;;;;;38.53;6.78;;;;;;;18.19;83.12;100687.50;5032446;28;20523;-73
2023/03/30 10:26:30;;;;;;;29.25;5.40;;;;;;;19.09;72.28;100689.66;5032592;28;20346;-72
2023/03/30 10:29:09;;;;;;;42.22;6.95;;;;;;;19.50;68.87;100689.66;5014421;28;20025;-73
2023/03/30 10:31:37;;;;;;;39.75;6.25;;;;;;;19.56;66.88;100690.72;5032530;28;20040;-72
2023/03/30 10:34:13;;;;;;;31.33;5.97;;;;;;;19.49;64.15;100703.34;5014220;28;20045;-75
2023/03/30 10:36:39;;;;;;;31.58;5.72;;;;;;;19.92;63.27;100711.19;5032150;28;20083;-75
2023/03/30 10:39:13;;;;;;;32.90;6.00;;;;;;;19.70;64.00;100707.78;5032087;28;20040;-76
2023/03/30 10:41:41;;;;;;;33.63;6.55;;;;;;;19.34;64.66;100714.28;5031711;28;20108;-75
2023/03/30 10:44:28;;;;;;;33.78;5.43;;;;;;;18.70;69.31;100707.22;5031975;28;20035;-76
2023/03/30 10:47:24;;;;;;;32.00;6.13;;;;;;;18.91;69.59;100698.25;5032298;28;20112;-75
2023/03/30 10:49:52;;;;;;;38.95;7.30;;;;;;;18.90;68.76;100710.91;5031161;28;20041;-75
2023/03/30 10:52:46;;;;;;;39.22;6.60;;;;;;;18.09;72.38;100706.69;5031723;28;20446;-76
2023/03/30 10:55:22;;;;;;;40.10;6.28;;;;;;;16.99;81.12;100721.00;5031374;28;20051;-75
2023/03/30 10:58:03;;;;;;;35.30;5.65;;;;;;;16.78;89.62;100716.31;5031471;28;20343;-75
2023/03/30 11:01:00;;;;;;;40.55;6.60;;;;;;;16.74;92.58;100719.38;5031706;28;20476;-76
2023/03/30 11:03:30;;;;;;;32.10;5.57;;;;;;;16.00;100.00;100719.13;5030999;28;20112;-76
2023/03/30 11:06:02;;;;;;;38.67;6.32;;;;;;;15.38;100.00;100712.72;5031613;28;20032;-76
2023/03/30 11:08:33;;;;;;;38.75;7.18;;;;;;;15.09;100.00;100713.31;5031636;28;20124;-75
2023/03/30 11:10:59;;;;;;;44.10;6.63;;;;;;;14.89;100.00;100726.25;4997572;28;20030;-75
2023/03/30 11:13:50;;;;;;;39.42;6.35;;;;;;;14.42;100.00;100723.25;5031634;28;20052;-76
2023/03/30 11:16:20;;;;;;;41.47;6.93;;;;;;;14.13;100.00;100717.53;5031426;28;20029;-75
2023/03/30 11:19:05;;;;;;;39.25;5.40;;;;;;;14.10;100.00;100716.84;5031193;28;20053;-77
2023/03/30 11:21:49;;;;;;;41.70;7.20;;;;;;;14.51;100.00;100725.91;5031018;28;20025;-74
2023/03/30 11:24:26;;;;;;;34.08;5.93;;;;;;;14.65;100.00;100727.13;5030849;28;20029;-73
2023/03/30 11:27:02;;;;;;;39.10;6.18;;;;;;;14.79;100.00;100721.06;5030950;28;20037;-75